createdAt,value
2019-04-05T00:00:06.209Z,7.40
2019-04-05T00:02:35.020Z,7.30
2019-04-05T00:05:04.553Z,7.40
2019-04-05T00:07:33.367Z,7.30
2019-04-05T00:10:02.247Z,7.30
2019-04-05T00:12:31.385Z,7.30
2019-04-05T00:15:00.504Z,7.30
2019-04-05T00:17:29.328Z,7.20
2019-04-05T00:19:58.176Z,7.30
2019-04-05T00:22:26.990Z,7.20
2019-04-05T00:24:55.800Z,7.20
2019-04-05T00:27:24.631Z,7.30
2019-04-05T00:29:53.443Z,7.20
2019-04-05T00:32:22.277Z,7.20
2019-04-05T00:34:51.113Z,7.30
2019-04-05T00:37:20.041Z,7.30
2019-04-05T00:39:48.871Z,7.30
2019-04-05T00:42:17.734Z,7.30
2019-04-05T00:44:46.541Z,7.30
2019-04-05T00:47:15.358Z,7.40
2019-04-05T00:49:44.203Z,7.40
2019-04-05T00:52:13.015Z,7.40
2019-04-05T00:54:41.819Z,7.40
2019-04-05T00:57:13.456Z,7.40
2019-04-05T00:59:42.268Z,7.50
2019-04-05T01:02:11.170Z,7.50
2019-04-05T01:04:40.011Z,7.50
2019-04-05T01:07:08.810Z,7.50
2019-04-05T01:09:37.726Z,7.40
2019-04-05T01:12:06.873Z,7.40
2019-04-05T01:14:36.683Z,7.40
2019-04-05T01:17:05.497Z,7.40
2019-04-05T01:19:36.435Z,7.40
2019-04-05T01:22:07.750Z,7.40
2019-04-05T01:24:37.510Z,7.40
2019-04-05T01:27:10.850Z,7.30
2019-04-05T01:29:39.718Z,7.30
2019-04-05T01:32:08.523Z,7.30
2019-04-05T01:34:37.364Z,7.30
2019-04-05T01:37:06.321Z,7.30
2019-04-05T01:39:35.136Z,7.30
2019-04-05T01:42:03.959Z,7.40
2019-04-05T01:44:33.070Z,7.40
2019-04-05T01:47:01.888Z,7.40
2019-04-05T01:49:30.742Z,7.40
2019-04-05T01:51:59.653Z,7.40
2019-04-05T01:54:29.311Z,7.30
2019-04-05T01:56:58.233Z,7.30
2019-04-05T01:59:27.042Z,7.20
2019-04-05T02:01:55.860Z,7.20
2019-04-05T02:04:24.725Z,7.20
2019-04-05T02:06:53.697Z,7.20
2019-04-05T02:09:22.598Z,7.20
2019-04-05T02:11:51.444Z,7.20
2019-04-05T02:14:20.471Z,7.20
2019-04-05T02:16:49.285Z,7.30
2019-04-05T02:19:18.258Z,7.30
2019-04-05T02:21:47.412Z,7.20
2019-04-05T02:24:16.207Z,7.30
2019-04-05T02:26:45.135Z,7.20
2019-04-05T02:29:13.980Z,7.20
2019-04-05T02:31:42.804Z,7.20
2019-04-05T02:34:11.743Z,7.20
2019-04-05T02:36:40.521Z,7.20
2019-04-05T02:39:09.727Z,7.10
2019-04-05T02:41:39.993Z,7.10
2019-04-05T02:44:10.605Z,7.10
2019-04-05T02:46:41.501Z,7.10
2019-04-05T02:49:11.732Z,7.10
2019-04-05T02:51:41.340Z,7.10
2019-04-05T02:54:11.046Z,7.00
2019-04-05T02:56:40.698Z,7.00
2019-04-05T02:59:09.517Z,7.00
2019-04-05T03:01:38.839Z,7.00
2019-04-05T03:04:07.686Z,7.00
2019-04-05T03:06:36.992Z,7.10
2019-04-05T03:09:06.899Z,7.10
2019-04-05T03:11:37.910Z,7.20
2019-04-05T03:14:08.426Z,7.10
2019-04-05T03:16:41.827Z,7.10
2019-04-05T03:19:13.625Z,7.10
2019-04-05T03:21:45.388Z,7.10
2019-04-05T03:24:17.266Z,7.00
2019-04-05T03:26:49.019Z,7.00
2019-04-05T03:29:18.025Z,7.00
2019-04-05T03:31:47.255Z,6.90
2019-04-05T03:34:17.253Z,6.90
2019-04-05T03:36:46.260Z,6.80
2019-04-05T03:39:15.331Z,6.80
2019-04-05T03:41:44.542Z,6.70
2019-04-05T03:44:16.083Z,6.70
2019-04-05T03:46:56.157Z,6.70
2019-04-05T03:49:15.661Z,6.70
2019-04-05T03:51:45.371Z,6.70
2019-04-05T03:54:15.528Z,6.60
2019-04-05T03:56:44.822Z,6.60
2019-04-05T03:59:13.644Z,6.70
2019-04-05T04:01:42.589Z,6.60
2019-04-05T04:04:11.525Z,6.60
2019-04-05T04:06:40.452Z,6.60
2019-04-05T04:09:09.453Z,6.60
2019-04-05T04:11:40.163Z,6.60
2019-04-05T04:14:09.580Z,6.60
2019-04-05T04:16:41.237Z,6.60
2019-04-05T04:19:10.340Z,6.60
2019-04-05T04:21:50.806Z,6.60
2019-04-05T04:24:20.105Z,6.60
2019-04-05T04:26:50.155Z,6.60
2019-04-05T04:29:20.011Z,6.70
2019-04-05T04:31:49.627Z,6.60
2019-04-05T04:34:18.926Z,6.60
2019-04-05T04:36:48.180Z,6.60
2019-04-05T04:39:18.639Z,6.50
2019-04-05T04:41:49.339Z,6.50
2019-04-05T04:44:19.278Z,6.50
2019-04-05T04:46:48.695Z,6.50
2019-04-05T04:49:17.997Z,6.50
2019-04-05T04:51:50.152Z,6.50
2019-04-05T04:54:19.494Z,6.40
2019-04-05T04:56:48.281Z,6.40
2019-04-05T04:59:17.408Z,6.40
2019-04-05T05:01:48.002Z,6.40
2019-04-05T05:04:16.903Z,6.40
2019-04-05T05:06:46.062Z,6.40
2019-04-05T05:09:15.118Z,6.40
2019-04-05T05:11:44.356Z,6.40
2019-04-05T05:14:14.875Z,6.40
2019-04-05T05:16:43.685Z,6.40
2019-04-05T05:19:12.661Z,6.40
2019-04-05T05:21:41.531Z,6.40
2019-04-05T05:24:10.554Z,6.40
2019-04-05T05:26:39.378Z,6.30
2019-04-05T05:29:08.205Z,6.30
2019-04-05T05:31:38.486Z,6.20
2019-04-05T05:34:08.764Z,6.30
2019-04-05T05:36:37.802Z,6.30
2019-04-05T05:39:07.896Z,6.30
2019-04-05T05:41:36.695Z,6.30
2019-04-05T05:44:05.839Z,6.30
2019-04-05T05:46:34.637Z,6.30
2019-04-05T05:49:03.458Z,6.20
2019-04-05T05:51:32.498Z,6.20
2019-04-05T05:54:01.346Z,6.20
2019-04-05T05:56:30.209Z,6.20
2019-04-05T05:58:59.635Z,6.20
2019-04-05T06:01:29.055Z,6.30
2019-04-05T06:03:57.867Z,6.30
2019-04-05T06:06:26.711Z,6.40
2019-04-05T06:08:55.527Z,6.40
2019-04-05T06:11:24.337Z,6.40
2019-04-05T06:13:53.170Z,6.50
2019-04-05T06:16:22.019Z,6.50
2019-04-05T06:18:50.821Z,6.60
2019-04-05T06:21:19.695Z,6.70
2019-04-05T06:23:48.482Z,6.70
2019-04-05T06:26:17.282Z,6.80
2019-04-05T06:28:46.164Z,6.80
2019-04-05T06:31:15.148Z,6.90
2019-04-05T06:33:43.944Z,6.80
2019-04-05T06:36:12.787Z,6.90
2019-04-05T06:38:41.595Z,7.00
2019-04-05T06:41:10.535Z,7.00
2019-04-05T06:43:39.360Z,7.00
2019-04-05T06:46:08.172Z,7.10
2019-04-05T06:48:36.988Z,7.10
2019-04-05T06:51:06.145Z,7.10
2019-04-05T06:53:34.951Z,7.10
2019-04-05T06:56:03.850Z,7.20
2019-04-05T06:58:32.739Z,7.20
2019-04-05T07:01:01.575Z,7.20
2019-04-05T07:03:30.465Z,7.30
2019-04-05T07:05:59.428Z,7.40
2019-04-05T07:08:28.205Z,7.50
2019-04-05T07:10:57.010Z,7.50
2019-04-05T07:13:27.446Z,7.60
2019-04-05T07:15:56.529Z,7.60
2019-04-05T07:18:34.032Z,7.60
2019-04-05T07:20:57.859Z,7.70
2019-04-05T07:23:26.594Z,7.70
2019-04-05T07:25:55.390Z,7.70
2019-04-05T07:28:25.266Z,7.70
2019-04-05T07:30:54.345Z,7.70
2019-04-05T07:33:23.163Z,7.70
2019-04-05T07:35:52.082Z,7.80
2019-04-05T07:38:21.156Z,7.80
2019-04-05T07:40:49.946Z,7.80
2019-04-05T07:43:18.779Z,7.90
2019-04-05T07:45:48.284Z,7.90
2019-04-05T07:48:17.081Z,7.90
2019-04-05T07:50:46.027Z,8.00
2019-04-05T07:53:14.880Z,8.00
2019-04-05T07:55:43.831Z,8.00
2019-04-05T07:58:12.673Z,8.00
2019-04-05T08:00:53.053Z,8.10
2019-04-05T08:03:23.219Z,8.10
2019-04-05T08:05:52.947Z,8.10
2019-04-05T08:08:36.790Z,8.10
2019-04-05T08:11:05.901Z,8.20
2019-04-05T08:13:37.407Z,8.20
2019-04-05T08:16:06.251Z,8.20
2019-04-05T08:18:35.069Z,8.20
2019-04-05T08:21:04.046Z,8.30
2019-04-05T08:23:33.289Z,8.30
2019-04-05T08:26:02.424Z,8.40
2019-04-05T08:28:31.503Z,8.60
2019-04-05T08:31:00.654Z,8.70
2019-04-05T08:33:30.044Z,8.90
2019-04-05T08:35:58.870Z,9.00
2019-04-05T08:38:27.932Z,9.00
2019-04-05T08:40:56.796Z,9.00
2019-04-05T08:43:25.781Z,9.10
2019-04-05T08:45:54.631Z,9.10
2019-04-05T08:48:23.439Z,9.20
2019-04-05T08:50:52.246Z,9.20
2019-04-05T08:53:21.117Z,9.20
2019-04-05T08:55:49.937Z,9.10
2019-04-05T08:58:18.751Z,9.00
2019-04-05T09:00:47.607Z,9.10
2019-04-05T09:03:16.563Z,9.10
2019-04-05T09:05:45.486Z,9.20
2019-04-05T09:08:14.317Z,9.30
2019-04-05T09:10:43.411Z,9.40
2019-04-05T09:13:12.197Z,9.30
2019-04-05T09:15:41.039Z,9.30
2019-04-05T09:18:09.983Z,9.30
2019-04-05T09:20:40.246Z,9.20
2019-04-05T09:23:09.090Z,9.30
2019-04-05T09:25:37.890Z,9.40
2019-04-05T09:28:06.698Z,9.40
2019-04-05T09:30:35.560Z,9.40
2019-04-05T09:33:04.384Z,9.40
2019-04-05T09:35:33.306Z,9.40
2019-04-05T09:38:02.139Z,9.30
2019-04-05T09:40:30.991Z,9.30
2019-04-05T09:42:59.804Z,9.30
2019-04-05T09:45:28.706Z,9.20
2019-04-05T09:47:57.475Z,9.20
2019-04-05T09:50:26.457Z,9.20
2019-04-05T09:52:55.288Z,9.30
2019-04-05T09:55:24.911Z,9.40
2019-04-05T09:57:53.725Z,9.40
2019-04-05T10:00:27.195Z,9.40
2019-04-05T10:02:56.259Z,9.50
2019-04-05T10:05:25.027Z,9.50
2019-04-05T10:07:55.634Z,9.50
2019-04-05T10:10:24.583Z,9.40
2019-04-05T10:12:53.480Z,9.30
2019-04-05T10:15:22.793Z,9.30
2019-04-05T10:17:51.594Z,9.30
2019-04-05T10:20:20.507Z,9.30
2019-04-05T10:22:49.327Z,9.40
2019-04-05T10:25:18.162Z,9.40
2019-04-05T10:27:46.975Z,9.40
2019-04-05T10:30:15.938Z,9.50
2019-04-05T10:32:46.286Z,9.50
2019-04-05T10:35:15.200Z,9.40
2019-04-05T10:37:44.033Z,9.40
2019-04-05T10:40:13.347Z,9.40
2019-04-05T10:42:44.436Z,9.40
2019-04-05T10:45:14.724Z,9.40
2019-04-05T10:47:43.672Z,9.30
2019-04-05T10:50:14.155Z,9.30
2019-04-05T10:52:43.002Z,9.40
2019-04-05T10:55:12.468Z,9.40
2019-04-05T10:57:41.294Z,9.40
2019-04-05T11:00:14.123Z,9.40
2019-04-05T11:02:42.939Z,9.50
2019-04-05T11:05:12.959Z,9.40
2019-04-05T11:07:41.786Z,9.50
2019-04-05T11:10:10.910Z,9.50
2019-04-05T11:12:39.734Z,9.50
2019-04-05T11:15:10.400Z,9.40
2019-04-05T11:17:41.430Z,9.50
2019-04-05T11:20:21.082Z,9.50
2019-04-05T11:22:42.124Z,9.60
2019-04-05T11:25:12.169Z,9.60
2019-04-05T11:27:40.940Z,9.50
2019-04-05T11:30:11.751Z,9.60
2019-04-05T11:32:41.051Z,9.60
2019-04-05T11:35:10.552Z,9.60
2019-04-05T11:37:39.941Z,9.60
2019-04-05T11:40:10.537Z,9.70
2019-04-05T11:42:41.008Z,9.70
2019-04-05T11:45:10.180Z,9.60
2019-04-05T11:47:41.140Z,9.60
2019-04-05T11:50:11.756Z,9.70
2019-04-05T11:52:42.328Z,9.70
2019-04-05T11:55:11.267Z,9.70
2019-04-05T11:57:41.408Z,9.60
2019-04-05T12:00:16.502Z,9.50
2019-04-05T12:02:52.941Z,9.50
2019-04-05T12:05:26.980Z,9.50
2019-04-05T12:07:58.624Z,9.50
2019-04-05T12:10:25.491Z,9.50
2019-04-05T12:12:54.394Z,9.60
2019-04-05T12:15:23.194Z,9.60
2019-04-05T12:17:53.234Z,9.70
2019-04-05T12:20:23.275Z,9.70
2019-04-05T12:22:52.670Z,9.70
2019-04-05T12:25:21.710Z,9.70
2019-04-05T12:27:50.555Z,9.60
2019-04-05T12:30:20.995Z,9.50
2019-04-05T12:32:49.787Z,9.50
2019-04-05T12:35:21.397Z,9.50
2019-04-05T12:37:50.452Z,9.50
2019-04-05T12:40:19.919Z,9.40
2019-04-05T12:42:48.765Z,9.50
2019-04-05T12:45:17.664Z,9.60
2019-04-05T12:47:46.696Z,9.60
2019-04-05T12:53:02.351Z,9.60
2019-04-05T12:55:31.182Z,9.60
2019-04-05T12:57:59.997Z,9.70
2019-04-05T13:00:28.794Z,9.70
2019-04-05T13:05:44.552Z,9.70
2019-04-05T13:08:13.383Z,9.80
2019-04-05T13:10:42.339Z,9.70
2019-04-05T13:13:11.195Z,9.80
2019-04-05T13:15:40.237Z,9.90
2019-04-05T13:18:09.636Z,9.90
2019-04-05T13:20:38.458Z,9.80
2019-04-05T13:23:07.309Z,9.90
2019-04-05T13:25:36.124Z,9.90
2019-04-05T13:28:13.363Z,9.80
2019-04-05T13:30:35.535Z,9.80
2019-04-05T13:33:04.331Z,9.90
2019-04-05T13:35:33.192Z,9.80
2019-04-05T13:38:02.018Z,9.80
2019-04-05T13:40:30.831Z,9.80
2019-04-05T13:43:02.030Z,9.70
2019-04-05T13:45:31.505Z,9.60
2019-04-05T13:48:00.323Z,9.50
2019-04-05T13:50:29.135Z,9.60
2019-04-05T13:52:58.189Z,9.60
2019-04-05T13:55:26.926Z,9.50
2019-04-05T13:57:55.837Z,9.50
2019-04-05T14:00:24.777Z,9.50
2019-04-05T14:02:53.586Z,9.40
2019-04-05T14:05:22.808Z,9.40
2019-04-05T14:07:54.674Z,9.40
2019-04-05T14:10:22.230Z,9.50
2019-04-05T14:12:51.038Z,9.50
2019-04-05T14:15:19.918Z,9.50
2019-04-05T14:17:49.410Z,9.50
2019-04-05T14:20:19.723Z,9.50
2019-04-05T14:22:51.446Z,9.50
2019-04-05T14:25:19.374Z,9.50
2019-04-05T14:27:48.173Z,9.50
2019-04-05T14:30:18.539Z,9.50
2019-04-05T14:32:51.461Z,9.50
2019-04-05T14:35:19.911Z,9.40
2019-04-05T14:37:48.767Z,9.50
2019-04-05T14:40:18.907Z,9.50
2019-04-05T14:42:47.737Z,9.60
2019-04-05T14:45:16.683Z,9.50
2019-04-05T14:47:45.480Z,9.50
2019-04-05T14:50:16.017Z,9.40
2019-04-05T14:52:45.019Z,9.40
2019-04-05T14:55:14.246Z,9.30
2019-04-05T14:57:43.029Z,9.40
2019-04-05T15:00:14.899Z,9.40
2019-04-05T15:02:43.933Z,9.40
2019-04-05T15:05:13.157Z,9.40
2019-04-05T15:07:42.001Z,9.40
2019-04-05T15:10:11.127Z,9.40
2019-04-05T15:12:39.942Z,9.30
2019-04-05T15:15:09.385Z,9.30
2019-04-05T15:17:47.812Z,9.30
2019-04-05T15:20:09.162Z,9.40
2019-04-05T15:22:41.408Z,9.50
2019-04-05T15:25:09.989Z,9.50
2019-04-05T15:27:38.779Z,9.50
2019-04-05T15:30:08.717Z,9.40
2019-04-05T15:32:38.022Z,9.40
2019-04-05T15:35:09.405Z,9.40
2019-04-05T15:37:40.316Z,9.60
2019-04-05T15:40:10.721Z,9.50
2019-04-05T15:42:39.527Z,9.50
2019-04-05T15:45:09.665Z,9.50
2019-04-05T15:47:38.778Z,9.50
2019-04-05T15:50:08.597Z,9.40
2019-04-05T15:52:37.455Z,9.40
2019-04-05T15:55:07.267Z,9.50
2019-04-05T15:57:39.192Z,9.50
2019-04-05T16:00:18.591Z,9.70
2019-04-05T16:02:47.396Z,9.80
2019-04-05T16:05:18.079Z,10.00
2019-04-05T16:07:46.935Z,9.90
2019-04-05T16:10:15.960Z,10.10
2019-04-05T16:12:44.772Z,10.10
2019-04-05T16:15:13.887Z,10.10
2019-04-05T16:17:42.706Z,10.00
2019-04-05T16:20:12.207Z,9.80
2019-04-05T16:22:43.384Z,9.80
2019-04-05T16:25:12.415Z,9.70
2019-04-05T16:27:41.221Z,9.70
2019-04-05T16:30:10.643Z,9.80
2019-04-05T16:32:39.450Z,9.90
2019-04-05T16:35:08.383Z,9.90
2019-04-05T16:37:37.178Z,9.90
2019-04-05T16:40:08.243Z,9.70
2019-04-05T16:42:37.055Z,9.60
2019-04-05T16:45:08.358Z,9.40
2019-04-05T16:47:37.155Z,9.30
2019-04-05T16:50:08.853Z,9.40
2019-04-05T16:52:44.692Z,9.50
2019-04-05T16:55:08.366Z,9.60
2019-04-05T16:57:37.163Z,9.70
2019-04-05T17:00:09.446Z,9.70
2019-04-05T17:02:38.317Z,9.70
2019-04-05T17:05:08.119Z,9.80
2019-04-05T17:07:37.014Z,9.80
2019-04-05T17:10:06.207Z,9.80
2019-04-05T17:12:35.036Z,9.70
2019-04-05T17:15:05.258Z,9.70
2019-04-05T17:17:34.141Z,9.70
2019-04-05T17:20:03.063Z,9.70
2019-04-05T17:22:31.898Z,9.40
2019-04-05T17:25:00.703Z,9.30
2019-04-05T17:27:29.519Z,9.30
2019-04-05T17:29:58.379Z,9.30
2019-04-05T17:32:27.214Z,9.30
2019-04-05T17:34:56.011Z,9.20
2019-04-05T17:37:26.676Z,9.20
2019-04-05T17:39:55.307Z,9.20
2019-04-05T17:42:24.123Z,9.20
2019-04-05T17:44:52.954Z,9.10
2019-04-05T17:47:21.930Z,8.90
2019-04-05T17:49:50.822Z,8.90
2019-04-05T17:52:22.595Z,8.80
2019-04-05T17:54:51.413Z,8.80
2019-04-05T17:57:20.731Z,8.90
2019-04-05T17:59:49.569Z,8.80
2019-04-05T18:02:18.693Z,8.90
2019-04-05T18:04:47.657Z,8.90
2019-04-05T18:07:17.952Z,8.90
2019-04-05T18:09:46.745Z,8.90
2019-04-05T18:12:15.570Z,8.90
2019-04-05T18:14:44.404Z,8.90
2019-04-05T18:17:13.314Z,8.90
2019-04-05T18:19:42.123Z,8.90
2019-04-05T18:22:10.963Z,8.90
2019-04-05T18:24:39.782Z,8.90
2019-04-05T18:27:08.659Z,8.70
2019-04-05T18:29:37.510Z,8.70
2019-04-05T18:32:06.313Z,8.70
2019-04-05T18:34:35.431Z,8.70
2019-04-05T18:37:07.675Z,8.60
2019-04-05T18:39:36.635Z,8.60
2019-04-05T18:42:06.043Z,8.50
2019-04-05T18:44:34.869Z,8.50
2019-04-05T18:47:06.340Z,8.40
2019-04-05T18:49:35.169Z,8.30
2019-04-05T18:52:04.064Z,8.30
2019-04-05T18:54:32.858Z,8.40
2019-04-05T18:57:01.661Z,8.40
2019-04-05T18:59:30.485Z,8.40
2019-04-05T19:01:59.290Z,8.40
2019-04-05T19:04:28.414Z,8.50
2019-04-05T19:06:57.312Z,8.60
2019-04-05T19:09:26.113Z,8.60
2019-04-05T19:11:54.961Z,8.40
2019-04-05T19:14:23.877Z,8.40
2019-04-05T19:16:52.672Z,8.40
2019-04-05T19:19:21.475Z,8.40
2019-04-05T19:21:50.635Z,8.40
2019-04-05T19:24:19.473Z,8.30
2019-04-05T19:26:48.272Z,8.30
2019-04-05T19:29:17.119Z,8.20
2019-04-05T19:49:19.295Z,7.80
2019-04-05T19:51:49.214Z,7.80
2019-04-05T19:54:19.353Z,7.70
2019-04-05T19:56:49.666Z,7.60
2019-04-05T19:59:18.507Z,7.50
2019-04-05T20:01:49.946Z,7.40
2019-04-05T20:04:18.714Z,7.40
2019-04-05T20:09:21.714Z,7.40
2019-04-05T20:11:50.708Z,7.30
2019-04-05T20:14:19.833Z,7.20
2019-04-05T20:16:48.697Z,7.10
2019-04-05T20:19:17.509Z,6.90
2019-04-05T20:21:48.392Z,6.80
2019-04-05T20:24:17.309Z,6.70
2019-04-05T20:26:46.410Z,6.70
2019-04-05T20:29:15.295Z,6.60
2019-04-05T20:31:44.223Z,6.60
2019-04-05T20:34:13.038Z,6.50
2019-04-05T20:36:41.870Z,6.50
2019-04-05T20:39:10.673Z,6.40
2019-04-05T20:41:39.527Z,6.40
2019-04-05T20:44:08.367Z,6.40
2019-04-05T20:46:37.197Z,6.40
2019-04-05T20:49:06.248Z,6.40
2019-04-05T20:51:35.027Z,6.40
2019-04-05T20:54:03.897Z,6.40
2019-04-05T20:56:32.711Z,6.40
2019-04-05T20:59:01.566Z,6.30
2019-04-05T21:01:30.393Z,6.30
2019-04-05T21:03:59.175Z,6.40
2019-04-05T21:06:28.030Z,6.50
2019-04-05T21:08:58.268Z,6.60
2019-04-05T21:11:28.540Z,6.60
2019-04-05T21:13:57.475Z,6.50
2019-04-05T21:16:26.301Z,6.40
2019-04-05T21:18:55.107Z,6.30
2019-04-05T21:21:23.960Z,6.30
2019-04-05T21:23:52.755Z,6.20
2019-04-05T21:26:21.559Z,6.20
2019-04-05T21:28:50.406Z,6.10
2019-04-05T21:31:19.213Z,6.00
2019-04-05T21:33:48.339Z,6.00
2019-04-05T21:36:19.889Z,5.90
2019-04-05T21:38:48.703Z,5.90
2019-04-05T21:41:17.497Z,5.80
2019-04-05T21:43:46.496Z,5.80
2019-04-05T21:46:15.302Z,5.70
2019-04-05T21:48:44.097Z,5.70
2019-04-05T21:51:12.941Z,5.60
2019-04-05T21:53:41.752Z,5.60
2019-04-05T21:56:10.559Z,5.70
2019-04-05T21:58:39.505Z,5.60
2019-04-05T22:01:09.418Z,5.70
2019-04-05T22:03:38.397Z,5.60
2019-04-05T22:06:07.203Z,5.70
2019-04-05T22:08:36.017Z,5.60
2019-04-05T22:11:05.811Z,5.60
2019-04-05T22:13:37.357Z,5.60
2019-04-05T22:16:06.252Z,5.60
2019-04-05T22:18:35.122Z,5.50
2019-04-05T22:21:05.847Z,5.40
2019-04-05T22:23:36.012Z,5.40
2019-04-05T22:26:06.218Z,5.40
2019-04-05T22:28:36.438Z,5.40
2019-04-05T22:31:08.095Z,5.30
2019-04-05T22:33:37.208Z,5.30
2019-04-05T22:36:06.302Z,5.30
2019-04-05T22:38:36.372Z,5.30
2019-04-05T22:41:05.300Z,5.20
2019-04-05T22:43:34.191Z,5.20
2019-04-05T22:46:03.056Z,5.00
2019-04-05T22:48:31.979Z,5.00
2019-04-05T22:51:00.869Z,5.00
2019-04-05T22:53:29.861Z,5.00
2019-04-05T22:55:58.703Z,5.00
2019-04-05T22:58:27.640Z,4.90
2019-04-05T23:00:56.532Z,4.90
2019-04-05T23:03:25.417Z,4.90
2019-04-05T23:05:54.316Z,4.80
2019-04-05T23:08:23.204Z,4.80
2019-04-05T23:10:52.816Z,5.00
2019-04-05T23:13:21.914Z,5.10
2019-04-05T23:15:50.765Z,5.00
2019-04-05T23:18:19.690Z,5.00
2019-04-05T23:20:48.701Z,5.10
2019-04-05T23:23:17.655Z,5.20
2019-04-05T23:25:46.773Z,5.30
2019-04-05T23:28:15.636Z,5.40
2019-04-05T23:30:44.538Z,5.40
2019-04-05T23:33:16.520Z,5.40
2019-04-05T23:35:45.412Z,5.40
2019-04-05T23:38:14.277Z,5.50
2019-04-05T23:40:43.218Z,5.60
2019-04-05T23:43:12.089Z,5.70
2019-04-05T23:45:41.007Z,5.70
2019-04-05T23:48:09.972Z,5.80
2019-04-05T23:50:38.872Z,5.90
2019-04-05T23:53:07.761Z,5.80
2019-04-05T23:55:37.930Z,5.90
2019-04-05T23:58:06.916Z,5.80
